Terminal Aerodrome Forecast
Issued by NWS Chicago, IL

Home | Current Version | Previous Version | Graphics & Text | Print | Product List | Glossary On
Versions: 1 2 3 4 5 6 7 8 9 10 11 12 13 14 15 16 17 18 19 20 21 22 23 24 25 26 27 28 29 30 31 32 33 34 35 36 37
000
FTUS43 KLOT 280300 AAC
TAFRFD
TAF AMD
KRFD 280351Z 2804/2824 00000KT P6SM SCT025
      TEMPO 2804/2808 BKN025
     FM280800 VRB03KT 4SM BR SCT250
     FM281400 15010KT P6SM FEW150 BKN200
     FM281700 16014G22KT P6SM FEW100 BKN180=

USA.gov is the U.S. government's official web portal to all federal, state and local government web resources and services.